sensor_id;sensor_type;location;lat;lon;timestamp;P1;durP1;ratioP1;P2;durP2;ratioP2
14348;SDS011;7258;50.376;8.742;2022-12-18T00:00:26;52.80;;;18.93;;
14348;SDS011;7258;50.376;8.742;2022-12-18T00:02:29;63.10;;;18.47;;
14348;SDS011;7258;50.376;8.742;2022-12-18T00:04:32;44.93;;;19.07;;
14348;SDS011;7258;50.376;8.742;2022-12-18T00:06:35;54.90;;;18.27;;
14348;SDS011;7258;50.376;8.742;2022-12-18T00:08:39;82.77;;;18.60;;
14348;SDS011;7258;50.376;8.742;2022-12-18T00:10:42;72.20;;;18.13;;
14348;SDS011;7258;50.376;8.742;2022-12-18T00:12:47;74.97;;;20.90;;
14348;SDS011;7258;50.376;8.742;2022-12-18T00:14:50;40.53;;;18.67;;
14348;SDS011;7258;50.376;8.742;2022-12-18T00:16:53;67.17;;;18.97;;
14348;SDS011;7258;50.376;8.742;2022-12-18T00:18:59;70.57;;;19.07;;
14348;SDS011;7258;50.376;8.742;2022-12-18T00:21:03;85.53;;;21.07;;
14348;SDS011;7258;50.376;8.742;2022-12-18T00:23:08;69.27;;;19.50;;
14348;SDS011;7258;50.376;8.742;2022-12-18T00:25:12;77.00;;;17.53;;
14348;SDS011;7258;50.376;8.742;2022-12-18T00:27:15;44.93;;;17.53;;
14348;SDS011;7258;50.376;8.742;2022-12-18T00:29:18;51.77;;;18.17;;
14348;SDS011;7258;50.376;8.742;2022-12-18T00:31:22;39.80;;;17.73;;
14348;SDS011;7258;50.376;8.742;2022-12-18T00:33:26;46.20;;;18.07;;
14348;SDS011;7258;50.376;8.742;2022-12-18T00:35:29;65.10;;;19.53;;
14348;SDS011;7258;50.376;8.742;2022-12-18T00:37:33;48.50;;;17.33;;
14348;SDS011;7258;50.376;8.742;2022-12-18T00:39:36;63.97;;;17.43;;
14348;SDS011;7258;50.376;8.742;2022-12-18T00:41:40;63.10;;;19.57;;
14348;SDS011;7258;50.376;8.742;2022-12-18T00:44:01;58.00;;;17.50;;
14348;SDS011;7258;50.376;8.742;2022-12-18T00:46:04;86.97;;;19.13;;
14348;SDS011;7258;50.376;8.742;2022-12-18T00:48:08;58.13;;;18.03;;
14348;SDS011;7258;50.376;8.742;2022-12-18T00:50:10;69.63;;;17.90;;
14348;SDS011;7258;50.376;8.742;2022-12-18T00:52:13;64.27;;;18.70;;
14348;SDS011;7258;50.376;8.742;2022-12-18T00:54:16;70.87;;;18.67;;
14348;SDS011;7258;50.376;8.742;2022-12-18T00:56:23;57.50;;;19.47;;
14348;SDS011;7258;50.376;8.742;2022-12-18T00:58:27;82.00;;;19.67;;
14348;SDS011;7258;50.376;8.742;2022-12-18T01:00:30;57.60;;;19.63;;
14348;SDS011;7258;50.376;8.742;2022-12-18T01:02:33;72.07;;;20.03;;
14348;SDS011;7258;50.376;8.742;2022-12-18T01:04:36;84.40;;;22.77;;
14348;SDS011;7258;50.376;8.742;2022-12-18T01:06:39;74.63;;;19.37;;
14348;SDS011;7258;50.376;8.742;2022-12-18T01:08:42;72.47;;;19.80;;
14348;SDS011;7258;50.376;8.742;2022-12-18T01:10:45;69.13;;;20.53;;
14348;SDS011;7258;50.376;8.742;2022-12-18T01:12:48;82.03;;;20.90;;
14348;SDS011;7258;50.376;8.742;2022-12-18T01:14:52;76.20;;;22.13;;
14348;SDS011;7258;50.376;8.742;2022-12-18T01:16:55;94.40;;;21.53;;
14348;SDS011;7258;50.376;8.742;2022-12-18T01:18:58;76.20;;;22.70;;
14348;SDS011;7258;50.376;8.742;2022-12-18T01:21:02;59.07;;;21.33;;
14348;SDS011;7258;50.376;8.742;2022-12-18T01:23:08;72.33;;;21.50;;
14348;SDS011;7258;50.376;8.742;2022-12-18T01:25:11;99.90;;;20.70;;
14348;SDS011;7258;50.376;8.742;2022-12-18T01:27:13;53.07;;;20.77;;
14348;SDS011;7258;50.376;8.742;2022-12-18T01:29:16;81.10;;;22.27;;
14348;SDS011;7258;50.376;8.742;2022-12-18T01:31:21;68.40;;;21.07;;
14348;SDS011;7258;50.376;8.742;2022-12-18T01:33:26;94.27;;;23.80;;
14348;SDS011;7258;50.376;8.742;2022-12-18T01:35:28;75.73;;;23.07;;
14348;SDS011;7258;50.376;8.742;2022-12-18T01:37:31;69.83;;;22.53;;
14348;SDS011;7258;50.376;8.742;2022-12-18T01:39:34;88.90;;;22.17;;
14348;SDS011;7258;50.376;8.742;2022-12-18T01:41:36;61.80;;;20.47;;
14348;SDS011;7258;50.376;8.742;2022-12-18T01:43:58;86.90;;;23.10;;
14348;SDS011;7258;50.376;8.742;2022-12-18T01:46:00;65.03;;;22.70;;
14348;SDS011;7258;50.376;8.742;2022-12-18T01:48:06;114.50;;;21.67;;
14348;SDS011;7258;50.376;8.742;2022-12-18T01:50:11;92.90;;;22.43;;
14348;SDS011;7258;50.376;8.742;2022-12-18T01:52:16;87.00;;;23.27;;
14348;SDS011;7258;50.376;8.742;2022-12-18T01:54:20;128.73;;;22.50;;
14348;SDS011;7258;50.376;8.742;2022-12-18T01:56:23;77.97;;;21.30;;
14348;SDS011;7258;50.376;8.742;2022-12-18T01:58:27;64.63;;;20.57;;
14348;SDS011;7258;50.376;8.742;2022-12-18T02:00:37;50.03;;;21.40;;
14348;SDS011;7258;50.376;8.742;2022-12-18T02:02:41;112.87;;;21.60;;
14348;SDS011;7258;50.376;8.742;2022-12-18T02:04:47;68.87;;;21.43;;
14348;SDS011;7258;50.376;8.742;2022-12-18T02:06:50;53.33;;;19.77;;
14348;SDS011;7258;50.376;8.742;2022-12-18T02:09:02;82.60;;;21.73;;
14348;SDS011;7258;50.376;8.742;2022-12-18T02:11:13;72.33;;;20.13;;
14348;SDS011;7258;50.376;8.742;2022-12-18T02:13:26;77.57;;;20.90;;
14348;SDS011;7258;50.376;8.742;2022-12-18T02:15:38;61.23;;;21.27;;
14348;SDS011;7258;50.376;8.742;2022-12-18T02:17:47;58.40;;;20.50;;
14348;SDS011;7258;50.376;8.742;2022-12-18T02:20:01;94.80;;;20.10;;
14348;SDS011;7258;50.376;8.742;2022-12-18T02:22:24;77.30;;;21.17;;
14348;SDS011;7258;50.376;8.742;2022-12-18T02:24:33;51.30;;;19.87;;
14348;SDS011;7258;50.376;8.742;2022-12-18T02:26:43;65.77;;;20.33;;
14348;SDS011;7258;50.376;8.742;2022-12-18T02:28:51;61.93;;;19.47;;
14348;SDS011;7258;50.376;8.742;2022-12-18T02:30:57;77.27;;;18.70;;
14348;SDS011;7258;50.376;8.742;2022-12-18T02:33:05;52.87;;;19.37;;
14348;SDS011;7258;50.376;8.742;2022-12-18T02:35:11;62.37;;;19.37;;
14348;SDS011;7258;50.376;8.742;2022-12-18T02:37:17;46.77;;;18.70;;
14348;SDS011;7258;50.376;8.742;2022-12-18T02:39:22;42.83;;;18.13;;
14348;SDS011;7258;50.376;8.742;2022-12-18T02:41:28;53.97;;;19.77;;
14348;SDS011;7258;50.376;8.742;2022-12-18T02:43:35;65.50;;;19.90;;
14348;SDS011;7258;50.376;8.742;2022-12-18T02:45:46;69.57;;;20.23;;
14348;SDS011;7258;50.376;8.742;2022-12-18T02:47:49;79.80;;;20.60;;
14348;SDS011;7258;50.376;8.742;2022-12-18T02:49:54;56.53;;;19.40;;
14348;SDS011;7258;50.376;8.742;2022-12-18T02:52:05;64.83;;;19.80;;
14348;SDS011;7258;50.376;8.742;2022-12-18T02:54:13;49.47;;;19.27;;
14348;SDS011;7258;50.376;8.742;2022-12-18T02:56:24;61.10;;;20.67;;
14348;SDS011;7258;50.376;8.742;2022-12-18T02:58:33;55.87;;;19.40;;
14348;SDS011;7258;50.376;8.742;2022-12-18T03:00:51;55.63;;;18.80;;
14348;SDS011;7258;50.376;8.742;2022-12-18T03:03:02;50.20;;;20.10;;
14348;SDS011;7258;50.376;8.742;2022-12-18T03:05:11;56.80;;;19.73;;
14348;SDS011;7258;50.376;8.742;2022-12-18T03:07:18;47.40;;;19.00;;
14348;SDS011;7258;50.376;8.742;2022-12-18T03:09:26;57.97;;;18.50;;
14348;SDS011;7258;50.376;8.742;2022-12-18T03:11:33;46.27;;;17.93;;
14348;SDS011;7258;50.376;8.742;2022-12-18T03:13:59;43.80;;;17.33;;
14348;SDS011;7258;50.376;8.742;2022-12-18T03:16:03;48.00;;;17.33;;
14348;SDS011;7258;50.376;8.742;2022-12-18T03:18:11;34.83;;;18.07;;
14348;SDS011;7258;50.376;8.742;2022-12-18T03:20:17;37.03;;;17.93;;
14348;SDS011;7258;50.376;8.742;2022-12-18T03:22:22;35.37;;;17.13;;
14348;SDS011;7258;50.376;8.742;2022-12-18T03:24:29;39.43;;;17.43;;
14348;SDS011;7258;50.376;8.742;2022-12-18T03:26:33;35.17;;;17.00;;
14348;SDS011;7258;50.376;8.742;2022-12-18T03:28:41;36.57;;;17.27;;
14348;SDS011;7258;50.376;8.742;2022-12-18T03:30:49;34.23;;;16.33;;
14348;SDS011;7258;50.376;8.742;2022-12-18T03:32:56;35.77;;;16.97;;
14348;SDS011;7258;50.376;8.742;2022-12-18T03:35:04;36.70;;;16.70;;
14348;SDS011;7258;50.376;8.742;2022-12-18T03:37:10;38.27;;;17.70;;
14348;SDS011;7258;50.376;8.742;2022-12-18T03:39:13;33.30;;;16.53;;
14348;SDS011;7258;50.376;8.742;2022-12-18T03:41:17;39.93;;;18.40;;
14348;SDS011;7258;50.376;8.742;2022-12-18T03:43:29;37.90;;;16.97;;
14348;SDS011;7258;50.376;8.742;2022-12-18T03:45:41;38.57;;;17.07;;
14348;SDS011;7258;50.376;8.742;2022-12-18T03:47:55;42.20;;;17.30;;
14348;SDS011;7258;50.376;8.742;2022-12-18T03:50:04;36.70;;;17.77;;
14348;SDS011;7258;50.376;8.742;2022-12-18T03:52:14;40.00;;;17.70;;
14348;SDS011;7258;50.376;8.742;2022-12-18T03:54:23;38.87;;;18.27;;
14348;SDS011;7258;50.376;8.742;2022-12-18T03:56:28;33.80;;;16.90;;
14348;SDS011;7258;50.376;8.742;2022-12-18T03:58:34;38.67;;;16.77;;
14348;SDS011;7258;50.376;8.742;2022-12-18T04:00:42;37.97;;;17.53;;
14348;SDS011;7258;50.376;8.742;2022-12-18T04:02:47;34.70;;;16.73;;
14348;SDS011;7258;50.376;8.742;2022-12-18T04:04:55;34.97;;;16.80;;
14348;SDS011;7258;50.376;8.742;2022-12-18T04:07:01;36.00;;;17.03;;
14348;SDS011;7258;50.376;8.742;2022-12-18T04:09:04;34.23;;;17.20;;
14348;SDS011;7258;50.376;8.742;2022-12-18T04:11:07;35.27;;;17.80;;
14348;SDS011;7258;50.376;8.742;2022-12-18T04:13:10;32.87;;;16.17;;
14348;SDS011;7258;50.376;8.742;2022-12-18T04:15:13;31.30;;;16.90;;
14348;SDS011;7258;50.376;8.742;2022-12-18T04:17:16;34.67;;;16.63;;
14348;SDS011;7258;50.376;8.742;2022-12-18T04:19:18;33.40;;;16.47;;
14348;SDS011;7258;50.376;8.742;2022-12-18T04:21:23;32.23;;;16.50;;
14348;SDS011;7258;50.376;8.742;2022-12-18T04:23:26;28.30;;;15.20;;
14348;SDS011;7258;50.376;8.742;2022-12-18T04:25:29;30.27;;;15.27;;
14348;SDS011;7258;50.376;8.742;2022-12-18T04:27:32;30.40;;;15.90;;
14348;SDS011;7258;50.376;8.742;2022-12-18T04:29:34;31.30;;;16.20;;
14348;SDS011;7258;50.376;8.742;2022-12-18T04:31:37;30.43;;;15.50;;
14348;SDS011;7258;50.376;8.742;2022-12-18T04:33:40;33.60;;;15.83;;
14348;SDS011;7258;50.376;8.742;2022-12-18T04:35:43;26.40;;;14.70;;
14348;SDS011;7258;50.376;8.742;2022-12-18T04:37:48;33.37;;;15.60;;
14348;SDS011;7258;50.376;8.742;2022-12-18T04:39:51;26.00;;;14.67;;
14348;SDS011;7258;50.376;8.742;2022-12-18T04:41:53;28.63;;;14.10;;
14348;SDS011;7258;50.376;8.742;2022-12-18T04:43:57;27.80;;;14.80;;
14348;SDS011;7258;50.376;8.742;2022-12-18T04:46:03;26.47;;;14.97;;
14348;SDS011;7258;50.376;8.742;2022-12-18T04:48:06;28.47;;;14.30;;
14348;SDS011;7258;50.376;8.742;2022-12-18T04:50:09;25.20;;;13.90;;
14348;SDS011;7258;50.376;8.742;2022-12-18T04:52:12;23.27;;;14.20;;
14348;SDS011;7258;50.376;8.742;2022-12-18T04:54:19;28.73;;;14.77;;
14348;SDS011;7258;50.376;8.742;2022-12-18T04:56:22;26.93;;;14.10;;
14348;SDS011;7258;50.376;8.742;2022-12-18T04:58:25;26.70;;;14.37;;
14348;SDS011;7258;50.376;8.742;2022-12-18T05:00:28;28.03;;;14.13;;
14348;SDS011;7258;50.376;8.742;2022-12-18T05:02:30;27.20;;;14.43;;
14348;SDS011;7258;50.376;8.742;2022-12-18T05:04:34;25.97;;;14.00;;
14348;SDS011;7258;50.376;8.742;2022-12-18T05:06:36;26.20;;;14.30;;
14348;SDS011;7258;50.376;8.742;2022-12-18T05:08:39;24.97;;;14.03;;
14348;SDS011;7258;50.376;8.742;2022-12-18T05:10:43;27.83;;;13.90;;
14348;SDS011;7258;50.376;8.742;2022-12-18T05:12:46;27.27;;;14.40;;
14348;SDS011;7258;50.376;8.742;2022-12-18T05:15:04;25.47;;;14.07;;
14348;SDS011;7258;50.376;8.742;2022-12-18T05:17:08;27.43;;;14.37;;
14348;SDS011;7258;50.376;8.742;2022-12-18T05:19:12;25.83;;;13.53;;
14348;SDS011;7258;50.376;8.742;2022-12-18T05:21:14;25.30;;;14.27;;
14348;SDS011;7258;50.376;8.742;2022-12-18T05:23:17;22.23;;;12.47;;
14348;SDS011;7258;50.376;8.742;2022-12-18T05:25:21;24.20;;;13.37;;
14348;SDS011;7258;50.376;8.742;2022-12-18T05:27:26;26.80;;;14.63;;
14348;SDS011;7258;50.376;8.742;2022-12-18T05:29:29;23.83;;;13.90;;
14348;SDS011;7258;50.376;8.742;2022-12-18T05:31:31;26.87;;;13.90;;
14348;SDS011;7258;50.376;8.742;2022-12-18T05:33:40;22.60;;;13.00;;
14348;SDS011;7258;50.376;8.742;2022-12-18T05:35:43;21.57;;;13.20;;
14348;SDS011;7258;50.376;8.742;2022-12-18T05:37:47;21.37;;;12.70;;
14348;SDS011;7258;50.376;8.742;2022-12-18T05:39:49;22.07;;;13.07;;
14348;SDS011;7258;50.376;8.742;2022-12-18T05:41:52;24.50;;;12.93;;
14348;SDS011;7258;50.376;8.742;2022-12-18T05:43:56;24.30;;;13.73;;
14348;SDS011;7258;50.376;8.742;2022-12-18T05:46:03;25.47;;;13.27;;
14348;SDS011;7258;50.376;8.742;2022-12-18T05:48:08;24.90;;;14.20;;
14348;SDS011;7258;50.376;8.742;2022-12-18T05:50:11;29.87;;;15.03;;
14348;SDS011;7258;50.376;8.742;2022-12-18T05:52:14;24.77;;;13.70;;
14348;SDS011;7258;50.376;8.742;2022-12-18T05:54:17;26.40;;;14.47;;
14348;SDS011;7258;50.376;8.742;2022-12-18T05:56:21;26.40;;;13.50;;
14348;SDS011;7258;50.376;8.742;2022-12-18T05:58:24;23.30;;;13.63;;
14348;SDS011;7258;50.376;8.742;2022-12-18T06:00:29;23.50;;;13.67;;
14348;SDS011;7258;50.376;8.742;2022-12-18T06:02:33;23.17;;;14.00;;
14348;SDS011;7258;50.376;8.742;2022-12-18T06:04:36;24.87;;;14.33;;
14348;SDS011;7258;50.376;8.742;2022-12-18T06:06:38;27.20;;;14.80;;
14348;SDS011;7258;50.376;8.742;2022-12-18T06:08:41;26.47;;;14.87;;
14348;SDS011;7258;50.376;8.742;2022-12-18T06:10:49;26.63;;;14.77;;
14348;SDS011;7258;50.376;8.742;2022-12-18T06:12:53;26.23;;;14.57;;
14348;SDS011;7258;50.376;8.742;2022-12-18T06:14:56;28.17;;;15.07;;
14348;SDS011;7258;50.376;8.742;2022-12-18T06:17:00;27.13;;;15.50;;
14348;SDS011;7258;50.376;8.742;2022-12-18T06:19:03;28.70;;;16.20;;
14348;SDS011;7258;50.376;8.742;2022-12-18T06:21:07;27.57;;;14.93;;
14348;SDS011;7258;50.376;8.742;2022-12-18T06:23:10;26.73;;;14.50;;
14348;SDS011;7258;50.376;8.742;2022-12-18T06:25:13;27.33;;;14.50;;
14348;SDS011;7258;50.376;8.742;2022-12-18T06:27:16;26.10;;;14.27;;
14348;SDS011;7258;50.376;8.742;2022-12-18T06:29:19;29.80;;;14.30;;
14348;SDS011;7258;50.376;8.742;2022-12-18T06:31:22;27.17;;;14.43;;
14348;SDS011;7258;50.376;8.742;2022-12-18T06:33:27;26.87;;;14.17;;
14348;SDS011;7258;50.376;8.742;2022-12-18T06:35:31;24.80;;;13.87;;
14348;SDS011;7258;50.376;8.742;2022-12-18T06:37:34;26.23;;;14.50;;
14348;SDS011;7258;50.376;8.742;2022-12-18T06:39:36;26.70;;;14.80;;
14348;SDS011;7258;50.376;8.742;2022-12-18T06:41:39;25.97;;;13.77;;
14348;SDS011;7258;50.376;8.742;2022-12-18T06:43:42;26.67;;;15.37;;
14348;SDS011;7258;50.376;8.742;2022-12-18T06:45:45;26.47;;;14.20;;
14348;SDS011;7258;50.376;8.742;2022-12-18T06:47:53;26.07;;;14.00;;
14348;SDS011;7258;50.376;8.742;2022-12-18T06:49:58;28.33;;;15.77;;
14348;SDS011;7258;50.376;8.742;2022-12-18T06:52:01;74.40;;;43.90;;
14348;SDS011;7258;50.376;8.742;2022-12-18T06:54:04;48.50;;;29.77;;
14348;SDS011;7258;50.376;8.742;2022-12-18T06:56:07;27.30;;;15.83;;
14348;SDS011;7258;50.376;8.742;2022-12-18T06:58:11;31.67;;;17.03;;
14348;SDS011;7258;50.376;8.742;2022-12-18T07:00:14;31.10;;;15.83;;
14348;SDS011;7258;50.376;8.742;2022-12-18T07:02:17;26.97;;;15.87;;
14348;SDS011;7258;50.376;8.742;2022-12-18T07:04:20;38.40;;;22.13;;
14348;SDS011;7258;50.376;8.742;2022-12-18T07:06:25;36.70;;;19.37;;
14348;SDS011;7258;50.376;8.742;2022-12-18T07:08:28;37.57;;;20.80;;
14348;SDS011;7258;50.376;8.742;2022-12-18T07:10:31;47.07;;;26.53;;
14348;SDS011;7258;50.376;8.742;2022-12-18T07:12:34;35.73;;;19.13;;
14348;SDS011;7258;50.376;8.742;2022-12-18T07:14:37;40.30;;;20.73;;
14348;SDS011;7258;50.376;8.742;2022-12-18T07:16:40;29.63;;;16.73;;
14348;SDS011;7258;50.376;8.742;2022-12-18T07:18:43;53.70;;;32.87;;
14348;SDS011;7258;50.376;8.742;2022-12-18T07:20:46;228.80;;;139.37;;
14348;SDS011;7258;50.376;8.742;2022-12-18T07:22:50;34.20;;;18.60;;
14348;SDS011;7258;50.376;8.742;2022-12-18T07:24:56;33.93;;;19.73;;
14348;SDS011;7258;50.376;8.742;2022-12-18T07:26:59;34.43;;;16.93;;
14348;SDS011;7258;50.376;8.742;2022-12-18T07:29:03;31.10;;;17.50;;
14348;SDS011;7258;50.376;8.742;2022-12-18T07:31:06;34.20;;;18.83;;
14348;SDS011;7258;50.376;8.742;2022-12-18T07:33:10;32.20;;;16.03;;
14348;SDS011;7258;50.376;8.742;2022-12-18T07:35:12;32.07;;;19.10;;
14348;SDS011;7258;50.376;8.742;2022-12-18T07:37:20;36.47;;;18.43;;
14348;SDS011;7258;50.376;8.742;2022-12-18T07:39:24;40.63;;;22.17;;
14348;SDS011;7258;50.376;8.742;2022-12-18T07:41:27;36.67;;;19.77;;
14348;SDS011;7258;50.376;8.742;2022-12-18T07:43:30;44.27;;;23.80;;
14348;SDS011;7258;50.376;8.742;2022-12-18T07:45:33;40.47;;;23.03;;
14348;SDS011;7258;50.376;8.742;2022-12-18T07:47:36;35.50;;;20.00;;
14348;SDS011;7258;50.376;8.742;2022-12-18T07:49:39;36.10;;;21.57;;
14348;SDS011;7258;50.376;8.742;2022-12-18T07:51:42;37.43;;;21.93;;
14348;SDS011;7258;50.376;8.742;2022-12-18T07:53:47;44.33;;;24.37;;
14348;SDS011;7258;50.376;8.742;2022-12-18T07:55:56;38.57;;;21.77;;
14348;SDS011;7258;50.376;8.742;2022-12-18T07:58:19;39.03;;;22.43;;
14348;SDS011;7258;50.376;8.742;2022-12-18T08:00:21;37.77;;;20.37;;
14348;SDS011;7258;50.376;8.742;2022-12-18T08:02:24;31.73;;;18.23;;
14348;SDS011;7258;50.376;8.742;2022-12-18T08:04:27;34.23;;;19.53;;
14348;SDS011;7258;50.376;8.742;2022-12-18T08:06:30;33.53;;;18.77;;
14348;SDS011;7258;50.376;8.742;2022-12-18T08:08:33;37.80;;;20.53;;
14348;SDS011;7258;50.376;8.742;2022-12-18T08:10:37;30.83;;;18.63;;
14348;SDS011;7258;50.376;8.742;2022-12-18T08:12:41;31.27;;;18.37;;
14348;SDS011;7258;50.376;8.742;2022-12-18T08:14:44;31.40;;;19.13;;
14348;SDS011;7258;50.376;8.742;2022-12-18T08:16:47;32.77;;;18.97;;
14348;SDS011;7258;50.376;8.742;2022-12-18T08:18:51;32.87;;;19.67;;
14348;SDS011;7258;50.376;8.742;2022-12-18T08:20:54;29.47;;;18.40;;
14348;SDS011;7258;50.376;8.742;2022-12-18T08:22:57;29.20;;;17.53;;
14348;SDS011;7258;50.376;8.742;2022-12-18T08:25:00;34.40;;;19.80;;
14348;SDS011;7258;50.376;8.742;2022-12-18T08:27:03;28.57;;;17.13;;
14348;SDS011;7258;50.376;8.742;2022-12-18T08:29:27;29.80;;;18.60;;
14348;SDS011;7258;50.376;8.742;2022-12-18T08:31:31;32.13;;;17.90;;
14348;SDS011;7258;50.376;8.742;2022-12-18T08:33:34;29.43;;;17.17;;
14348;SDS011;7258;50.376;8.742;2022-12-18T08:35:39;34.07;;;20.33;;
14348;SDS011;7258;50.376;8.742;2022-12-18T08:37:46;34.03;;;20.10;;
14348;SDS011;7258;50.376;8.742;2022-12-18T08:39:49;35.87;;;20.53;;
14348;SDS011;7258;50.376;8.742;2022-12-18T08:41:51;33.83;;;19.37;;
14348;SDS011;7258;50.376;8.742;2022-12-18T08:44:10;31.20;;;19.20;;
14348;SDS011;7258;50.376;8.742;2022-12-18T08:46:33;37.43;;;21.63;;
14348;SDS011;7258;50.376;8.742;2022-12-18T08:48:37;44.53;;;25.00;;
14348;SDS011;7258;50.376;8.742;2022-12-18T08:50:40;35.27;;;21.97;;
14348;SDS011;7258;50.376;8.742;2022-12-18T08:52:43;36.40;;;22.90;;
14348;SDS011;7258;50.376;8.742;2022-12-18T08:54:47;46.10;;;26.50;;
14348;SDS011;7258;50.376;8.742;2022-12-18T08:56:50;36.77;;;22.87;;
14348;SDS011;7258;50.376;8.742;2022-12-18T08:58:53;39.47;;;24.10;;
14348;SDS011;7258;50.376;8.742;2022-12-18T09:00:59;37.10;;;22.93;;
14348;SDS011;7258;50.376;8.742;2022-12-18T09:03:03;41.27;;;24.23;;
14348;SDS011;7258;50.376;8.742;2022-12-18T09:05:06;40.43;;;24.93;;
14348;SDS011;7258;50.376;8.742;2022-12-18T09:07:09;44.47;;;23.80;;
14348;SDS011;7258;50.376;8.742;2022-12-18T09:09:12;39.77;;;24.30;;
14348;SDS011;7258;50.376;8.742;2022-12-18T09:11:18;42.13;;;24.60;;
14348;SDS011;7258;50.376;8.742;2022-12-18T09:13:22;37.57;;;22.27;;
14348;SDS011;7258;50.376;8.742;2022-12-18T09:15:25;41.07;;;24.13;;
14348;SDS011;7258;50.376;8.742;2022-12-18T09:17:28;36.87;;;23.07;;
14348;SDS011;7258;50.376;8.742;2022-12-18T09:19:32;36.10;;;22.47;;
14348;SDS011;7258;50.376;8.742;2022-12-18T09:21:38;39.53;;;23.73;;
14348;SDS011;7258;50.376;8.742;2022-12-18T09:23:48;38.67;;;23.53;;
14348;SDS011;7258;50.376;8.742;2022-12-18T09:25:58;40.57;;;24.20;;
14348;SDS011;7258;50.376;8.742;2022-12-18T09:28:01;40.60;;;23.63;;
14348;SDS011;7258;50.376;8.742;2022-12-18T09:30:04;34.00;;;22.33;;
14348;SDS011;7258;50.376;8.742;2022-12-18T09:32:08;37.40;;;22.77;;
14348;SDS011;7258;50.376;8.742;2022-12-18T09:34:11;35.03;;;22.30;;
14348;SDS011;7258;50.376;8.742;2022-12-18T09:36:16;33.03;;;21.30;;
14348;SDS011;7258;50.376;8.742;2022-12-18T09:38:22;40.57;;;24.20;;
14348;SDS011;7258;50.376;8.742;2022-12-18T09:40:25;35.57;;;22.83;;
14348;SDS011;7258;50.376;8.742;2022-12-18T09:42:34;36.00;;;22.53;;
14348;SDS011;7258;50.376;8.742;2022-12-18T09:44:39;39.63;;;24.40;;
14348;SDS011;7258;50.376;8.742;2022-12-18T09:46:47;49.20;;;30.40;;
14348;SDS011;7258;50.376;8.742;2022-12-18T09:48:55;41.20;;;25.57;;
14348;SDS011;7258;50.376;8.742;2022-12-18T09:51:02;40.30;;;26.10;;
14348;SDS011;7258;50.376;8.742;2022-12-18T09:53:15;42.50;;;26.20;;
14348;SDS011;7258;50.376;8.742;2022-12-18T09:55:22;39.40;;;25.07;;
14348;SDS011;7258;50.376;8.742;2022-12-18T09:57:37;41.87;;;26.43;;
14348;SDS011;7258;50.376;8.742;2022-12-18T09:59:48;40.37;;;24.60;;
14348;SDS011;7258;50.376;8.742;2022-12-18T10:01:55;37.77;;;23.23;;
14348;SDS011;7258;50.376;8.742;2022-12-18T10:04:00;38.87;;;22.83;;
14348;SDS011;7258;50.376;8.742;2022-12-18T10:06:04;33.03;;;20.53;;
14348;SDS011;7258;50.376;8.742;2022-12-18T10:08:16;34.07;;;21.43;;
14348;SDS011;7258;50.376;8.742;2022-12-18T10:10:27;34.23;;;20.73;;
14348;SDS011;7258;50.376;8.742;2022-12-18T10:12:37;40.87;;;22.87;;
14348;SDS011;7258;50.376;8.742;2022-12-18T10:14:48;36.93;;;23.30;;
14348;SDS011;7258;50.376;8.742;2022-12-18T10:16:59;38.07;;;22.67;;
14348;SDS011;7258;50.376;8.742;2022-12-18T10:19:15;36.43;;;21.80;;
14348;SDS011;7258;50.376;8.742;2022-12-18T10:21:25;39.50;;;22.87;;
14348;SDS011;7258;50.376;8.742;2022-12-18T10:23:37;36.93;;;23.03;;
14348;SDS011;7258;50.376;8.742;2022-12-18T10:25:50;40.97;;;22.73;;
14348;SDS011;7258;50.376;8.742;2022-12-18T10:27:58;35.73;;;21.90;;
14348;SDS011;7258;50.376;8.742;2022-12-18T10:30:12;36.57;;;22.17;;
14348;SDS011;7258;50.376;8.742;2022-12-18T10:32:16;41.17;;;23.00;;
14348;SDS011;7258;50.376;8.742;2022-12-18T10:34:21;40.13;;;24.33;;
14348;SDS011;7258;50.376;8.742;2022-12-18T10:36:24;38.47;;;23.50;;
14348;SDS011;7258;50.376;8.742;2022-12-18T10:38:27;39.53;;;25.13;;
14348;SDS011;7258;50.376;8.742;2022-12-18T10:40:32;39.13;;;25.00;;
14348;SDS011;7258;50.376;8.742;2022-12-18T10:42:58;41.50;;;26.80;;
14348;SDS011;7258;50.376;8.742;2022-12-18T10:45:08;43.67;;;25.73;;
14348;SDS011;7258;50.376;8.742;2022-12-18T10:47:14;42.93;;;26.30;;
14348;SDS011;7258;50.376;8.742;2022-12-18T10:49:21;42.20;;;26.70;;
14348;SDS011;7258;50.376;8.742;2022-12-18T10:51:26;39.37;;;26.27;;
14348;SDS011;7258;50.376;8.742;2022-12-18T10:53:33;40.60;;;26.97;;
14348;SDS011;7258;50.376;8.742;2022-12-18T10:55:38;40.43;;;27.43;;
14348;SDS011;7258;50.376;8.742;2022-12-18T10:57:46;43.20;;;26.23;;
14348;SDS011;7258;50.376;8.742;2022-12-18T10:59:50;42.30;;;26.17;;
14348;SDS011;7258;50.376;8.742;2022-12-18T11:01:55;41.47;;;26.63;;
14348;SDS011;7258;50.376;8.742;2022-12-18T11:04:00;41.03;;;26.80;;
14348;SDS011;7258;50.376;8.742;2022-12-18T11:06:10;42.70;;;27.00;;
14348;SDS011;7258;50.376;8.742;2022-12-18T11:08:19;39.63;;;25.80;;
14348;SDS011;7258;50.376;8.742;2022-12-18T11:10:25;43.20;;;26.83;;
14348;SDS011;7258;50.376;8.742;2022-12-18T11:12:34;40.37;;;25.80;;
14348;SDS011;7258;50.376;8.742;2022-12-18T11:14:41;41.07;;;26.70;;
14348;SDS011;7258;50.376;8.742;2022-12-18T11:16:48;43.60;;;26.50;;
14348;SDS011;7258;50.376;8.742;2022-12-18T11:19:13;43.47;;;25.47;;
14348;SDS011;7258;50.376;8.742;2022-12-18T11:21:23;44.43;;;27.80;;
14348;SDS011;7258;50.376;8.742;2022-12-18T11:23:26;46.40;;;28.20;;
14348;SDS011;7258;50.376;8.742;2022-12-18T11:25:29;40.40;;;26.50;;
14348;SDS011;7258;50.376;8.742;2022-12-18T11:27:37;40.87;;;26.80;;
14348;SDS011;7258;50.376;8.742;2022-12-18T11:29:40;41.07;;;27.60;;
14348;SDS011;7258;50.376;8.742;2022-12-18T11:31:47;43.17;;;28.43;;
14348;SDS011;7258;50.376;8.742;2022-12-18T11:33:52;43.83;;;28.67;;
14348;SDS011;7258;50.376;8.742;2022-12-18T11:36:20;45.50;;;29.53;;
14348;SDS011;7258;50.376;8.742;2022-12-18T11:38:25;45.33;;;28.77;;
14348;SDS011;7258;50.376;8.742;2022-12-18T11:40:31;45.83;;;29.90;;
14348;SDS011;7258;50.376;8.742;2022-12-18T11:42:45;48.47;;;30.87;;
14348;SDS011;7258;50.376;8.742;2022-12-18T11:44:52;47.87;;;31.00;;
14348;SDS011;7258;50.376;8.742;2022-12-18T11:47:00;42.13;;;27.93;;
14348;SDS011;7258;50.376;8.742;2022-12-18T11:49:07;44.50;;;28.57;;
14348;SDS011;7258;50.376;8.742;2022-12-18T11:51:25;45.53;;;29.17;;
14348;SDS011;7258;50.376;8.742;2022-12-18T11:53:34;49.23;;;31.00;;
14348;SDS011;7258;50.376;8.742;2022-12-18T11:55:40;48.07;;;30.07;;
14348;SDS011;7258;50.376;8.742;2022-12-18T11:57:50;46.23;;;30.23;;
14348;SDS011;7258;50.376;8.742;2022-12-18T12:00:01;49.93;;;29.20;;
14348;SDS011;7258;50.376;8.742;2022-12-18T12:02:12;47.03;;;30.10;;
14348;SDS011;7258;50.376;8.742;2022-12-18T12:04:34;46.20;;;29.90;;
14348;SDS011;7258;50.376;8.742;2022-12-18T12:06:53;46.40;;;28.93;;
14348;SDS011;7258;50.376;8.742;2022-12-18T12:09:06;46.70;;;29.93;;
14348;SDS011;7258;50.376;8.742;2022-12-18T12:11:19;47.47;;;30.47;;
14348;SDS011;7258;50.376;8.742;2022-12-18T12:13:35;46.40;;;29.43;;
14348;SDS011;7258;50.376;8.742;2022-12-18T12:15:46;47.70;;;30.70;;
14348;SDS011;7258;50.376;8.742;2022-12-18T12:17:55;48.17;;;29.47;;
14348;SDS011;7258;50.376;8.742;2022-12-18T12:20:12;43.80;;;28.67;;
14348;SDS011;7258;50.376;8.742;2022-12-18T12:22:23;45.90;;;29.93;;
14348;SDS011;7258;50.376;8.742;2022-12-18T12:24:34;48.50;;;29.23;;
14348;SDS011;7258;50.376;8.742;2022-12-18T12:26:49;41.87;;;28.33;;